Time;durP1;ratioP1;P1;durP2;ratioP2;P2;SDS_P1;SDS_P2;PMS_P1;PMS_P2;Temp;Humidity;BMP_temperature;BMP_pressure;BME280_temperature;BME280_humidity;BME280_pressure;Samples;Min_cycle;Max_cycle;Signal;HPM_P1;HPM_P2
2021/08/17 00:01:34;;;;;;;;;;;;;;;;;;5107028;27;19981;-60
2021/08/17 00:04:02;;;;;;;;;;;;;;;;;;5108319;28;19960;-60
2021/08/17 00:06:32;;;;;;;;;;;;;;;21.25;53.33;99864.69;5107815;27;19932;-59
2021/08/17 00:09:00;;;;;;;;;;;;;;;21.23;53.15;99867.53;5100967;28;19997;-60
2021/08/17 00:11:30;;;;;;;;;;;;;;;;;;5104306;27;19978;-60
2021/08/17 00:13:58;;;;;;;;;;;;;;;;;;5105516;28;21831;-59
2021/08/17 00:16:26;;;;;;;;;;;;;;;21.23;53.15;99867.53;5108898;28;19932;-60
2021/08/17 00:18:54;;;;;;;;;;;;;;;21.25;53.04;99863.84;5106122;28;19924;-58
2021/08/17 00:21:22;;;;;;;;;;;;;;;;;;5110978;28;19931;-61
2021/08/17 00:23:50;;;;;;;;;;;;;;;;;;5102723;27;19924;-60
2021/08/17 00:26:19;;;;;;;;;;;;;;;21.22;53.09;99852.38;5102727;28;19924;-60
2021/08/17 00:28:47;;;;;;;;;;;;;;;21.23;53.05;99848.72;5106641;28;20334;-60
2021/08/17 00:31:15;;;;;;;;;;;;;;;21.23;53.14;99851.41;5104653;28;19982;-60
2021/08/17 00:33:43;;;;;;;;;;;;;;;;;;5106766;28;20397;-59
2021/08/17 00:36:11;;;;;;;;;;;;;;;21.25;53.00;99866.53;5105183;28;19928;-60
2021/08/17 00:38:39;;;;;;;;;;;;;;;21.23;52.76;99867.53;5097622;28;19924;-60
2021/08/17 00:41:08;;;;;;;;;;;;;;;21.22;52.73;99864.94;5101955;28;20450;-60
2021/08/17 00:43:37;;;;;;;;;;;;;;;21.23;52.85;99863.97;5109588;28;20453;-60
2021/08/17 00:46:06;;;;;;;;;;;;;;;21.23;53.05;99858.59;5108755;28;20395;-60
2021/08/17 00:48:34;;;;;;;;;;;;;;;21.23;52.81;99862.16;5103313;28;19927;-60
2021/08/17 00:51:02;;;;;;;;;;;;;;;;;;5106097;28;19939;-60
2021/08/17 00:53:30;;;;;;;;;;;;;;;21.23;53.04;99856.78;5102515;27;19954;-61
2021/08/17 00:55:58;;;;;;;;;;;;;;;21.25;52.80;99863.84;5105995;27;19939;-60
2021/08/17 00:58:26;;;;;;;;;;;;;;;21.25;53.05;99855.75;5103405;28;19970;-60
2021/08/17 01:00:57;;;;;;;;;;;;;;;21.25;53.09;99853.06;5106741;27;19935;-59
2021/08/17 01:03:25;;;;;;;;;;;;;;;;;;5104114;28;20334;-59
2021/08/17 01:05:53;;;;;;;;;;;;;;;21.23;53.17;99848.72;5104115;27;19956;-60
2021/08/17 01:08:21;;;;;;;;;;;;;;;21.25;52.72;99856.63;5107672;28;19928;-59
2021/08/17 01:10:49;;;;;;;;;;;;;;;21.25;52.94;99850.38;5103754;28;19923;-59
2021/08/17 01:13:17;;;;;;;;;;;;;;;;;;5105806;28;19968;-60
2021/08/17 01:15:45;;;;;;;;;;;;;;;21.25;53.06;99845.88;5106089;28;20001;-59
2021/08/17 01:18:14;;;;;;;;;;;;;;;21.25;52.82;99853.06;5101478;28;19924;-58
2021/08/17 01:20:42;;;;;;;;;;;;;;;21.25;52.59;99843.19;5100813;28;20543;-60
2021/08/17 01:23:10;;;;;;;;;;;;;;;21.25;52.84;99843.19;5102995;28;20626;-60
2021/08/17 01:25:41;;;;;;;;;;;;;;;21.26;53.27;99842.19;5109330;28;19949;-60
2021/08/17 01:28:09;;;;;;;;;;;;;;;21.26;53.26;99847.56;5107510;28;19954;-60
2021/08/17 01:30:37;;;;;;;;;;;;;;;21.26;53.11;99841.34;5103932;28;19938;-59
2021/08/17 01:33:05;;;;;;;;;;;;;;;21.26;52.82;99841.34;5097120;28;20586;-60
2021/08/17 01:35:33;;;;;;;;;;;;;;;21.26;52.61;99847.56;5100551;28;19928;-59
2021/08/17 01:38:03;;;;;;;;;;;;;;;21.25;52.82;99843.19;5102676;28;20034;-60
2021/08/17 01:40:31;;;;;;;;;;;;;;;21.26;52.73;99850.25;5106155;28;19966;-60
2021/08/17 01:43:00;;;;;;;;;;;;;;;21.26;52.88;99842.19;5100439;28;21112;-59
2021/08/17 01:45:28;;;;;;;;;;;;;;;21.26;52.75;99844.03;5105948;28;19923;-57
2021/08/17 01:47:56;;;;;;;;;;;;;;;21.26;52.56;99838.66;5101959;27;19968;-60
2021/08/17 01:50:25;;;;;;;;;;;;;;;21.26;52.91;99838.66;5100263;28;19928;-60
2021/08/17 01:52:53;;;;;;;;;;;;;;;21.25;52.53;99837.81;5103855;28;20003;-61
2021/08/17 01:55:21;;;;;;;;;;;;;;;21.26;52.59;99834.09;5107638;28;19971;-60
2021/08/17 01:57:49;;;;;;;;;;;;;;;21.26;52.29;99841.34;5105392;28;19923;-60
2021/08/17 02:00:19;;;;;;;;;;;;;;;21.26;52.56;99831.41;5106816;28;19942;-60
2021/08/17 02:02:48;;;;;;;;;;;;;;;21.26;52.54;99839.50;5096571;28;20379;-60
2021/08/17 02:05:20;;;;;;;;;;;;;;;21.25;52.44;99824.38;5100438;28;19928;-60
2021/08/17 02:07:51;;;;;;;;;;;;;;;21.26;52.37;99822.50;5103136;28;19932;-60
2021/08/17 02:10:20;;;;;;;;;;;;;;;21.26;52.30;99830.59;5119972;28;19923;-60
2021/08/17 02:12:48;;;;;;;;;;;;;;;21.26;52.60;99822.50;5105985;28;19924;-59
2021/08/17 02:15:16;;;;;;;;;;;;;;;21.26;52.10;99819.81;5102950;28;20791;-59
2021/08/17 02:17:46;;;;;;;;;;;;;;;21.26;52.31;99822.50;5097529;28;20384;-59
2021/08/17 02:20:15;;;;;;;;;;;;;;;21.26;52.28;99820.66;5108737;28;19985;-59
2021/08/17 02:22:42;;;;;;;;;;;;;;;21.26;52.43;99820.66;5106459;28;19928;-58
2021/08/17 02:25:11;;;;;;;;;;;;;;;21.26;51.97;99814.44;5106398;28;19935;-59
2021/08/17 02:27:39;;;;;;;;;;;;;;;21.26;52.19;99809.06;5101542;28;19932;-60
2021/08/17 02:30:07;;;;;;;;;;;;;;;21.25;52.12;99810.91;5104899;28;19932;-60
2021/08/17 02:32:35;;;;;;;;;;;;;;;21.26;52.26;99809.06;5101949;28;19939;-60
2021/08/17 02:35:06;;;;;;;;;;;;;;;21.26;52.14;99806.38;5109080;28;20027;-59
2021/08/17 02:37:34;;;;;;;;;;;;;;;21.25;52.16;99805.53;5102703;28;20386;-59
2021/08/17 02:40:02;;;;;;;;;;;;;;;21.26;51.94;99804.53;5106385;28;19928;-60
2021/08/17 02:42:30;;;;;;;;;;;;;;;21.26;52.04;99798.31;5105694;28;19932;-60
2021/08/17 02:44:58;;;;;;;;;;;;;;;21.27;51.98;99800.03;5100674;28;20185;-58
2021/08/17 02:47:26;;;;;;;;;;;;;;;21.26;51.88;99801.00;5095849;28;19935;-59
2021/08/17 02:49:55;;;;;;;;;;;;;;;21.26;52.19;99795.63;5107315;28;19928;-60
2021/08/17 02:52:24;;;;;;;;;;;;;;;21.26;52.15;99793.78;5105148;28;20417;-60
2021/08/17 02:54:52;;;;;;;;;;;;;;;21.25;52.05;99794.78;5102070;28;20017;-59
2021/08/17 02:57:20;;;;;;;;;;;;;;;21.27;52.06;99794.63;5102913;28;19932;-60
2021/08/17 02:59:48;;;;;;;;;;;;;;;21.26;51.92;99788.38;5094838;28;19939;-60
2021/08/17 03:02:16;;;;;;;;;;;;;;;21.26;51.97;99784.84;5100934;28;19924;-60
2021/08/17 03:04:45;;;;;;;;;;;;;;;21.26;52.15;99787.56;5102898;28;20302;-60
2021/08/17 03:07:13;;;;;;;;;;;;;;;21.26;51.95;99790.25;5103219;28;19953;-60
2021/08/17 03:09:42;;;;;;;;;;;;;;;21.26;51.92;99790.25;5105034;28;20293;-58
2021/08/17 03:12:10;;;;;;;;;;;;;;;21.26;51.87;99779.47;5097554;28;19931;-60
2021/08/17 03:14:38;;;;;;;;;;;;;;;21.25;51.99;99778.66;5102845;28;19928;-60
2021/08/17 03:17:06;;;;;;;;;;;;;;;21.25;52.43;99786.72;5098380;28;19935;-59
2021/08/17 03:19:34;;;;;;;;;;;;;;;21.26;52.03;99791.09;5102981;28;19943;-60
2021/08/17 03:22:02;;;;;;;;;;;;;;;21.26;51.98;99787.56;5108122;28;19950;-60
2021/08/17 03:24:30;;;;;;;;;;;;;;;21.26;52.03;99785.69;5107474;28;19924;-59
2021/08/17 03:26:59;;;;;;;;;;;;;;;21.25;52.05;99785.84;5098728;28;19928;-59
2021/08/17 03:29:29;;;;;;;;;;;;;;;21.25;52.19;99786.72;5101392;28;19927;-60
2021/08/17 03:31:57;;;;;;;;;;;;;;;21.25;52.29;99789.41;5107567;28;19931;-60
2021/08/17 03:34:25;;;;;;;;;;;;;;;21.25;51.89;99791.22;5107939;28;19970;-59
2021/08/17 03:36:53;;;;;;;;;;;;;;;21.25;52.08;99785.84;5108110;28;19927;-59
2021/08/17 03:39:21;;;;;;;;;;;;;;;21.25;51.92;99793.91;5108815;28;19931;-60
2021/08/17 03:41:49;;;;;;;;;;;;;;;21.25;52.04;99793.91;5100688;28;19981;-60
2021/08/17 03:44:18;;;;;;;;;;;;;;;21.25;52.07;99788.53;5105334;28;19927;-59
2021/08/17 03:46:46;;;;;;;;;;;;;;;21.25;51.97;99788.53;5105706;28;19928;-59
2021/08/17 03:49:14;;;;;;;;;;;;;;;;;;5115654;28;19930;-60
2021/08/17 03:51:42;;;;;;;;;;;;;;;;;;5118035;28;19923;-59
2021/08/17 03:54:10;;;;;;;;;;;;;;;21.25;52.11;99791.22;5103810;28;19923;-61
2021/08/17 03:56:38;;;;;;;;;;;;;;;21.25;51.89;99791.22;5097922;28;20161;-59
2021/08/17 03:59:06;;;;;;;;;;;;;;;21.25;51.97;99794.78;5102934;28;19995;-59
2021/08/17 04:01:35;;;;;;;;;;;;;;;21.25;51.85;99796.59;5105961;28;19925;-60
2021/08/17 04:04:03;;;;;;;;;;;;;;;21.25;51.98;99788.53;5102951;28;19973;-60
2021/08/17 04:06:31;;;;;;;;;;;;;;;21.25;51.84;99791.22;5101268;28;19928;-59
2021/08/17 04:08:59;;;;;;;;;;;;;;;21.26;51.92;99793.78;5098972;28;20108;-58
2021/08/17 04:11:27;;;;;;;;;;;;;;;21.27;51.98;99791.94;5103958;28;19927;-63
2021/08/17 04:13:55;;;;;;;;;;;;;;;21.28;52.60;99789.13;5106560;28;20007;-63
2021/08/17 04:16:23;;;;;;;;;;;;;;;21.28;52.77;99780.22;5102307;28;20276;-56
2021/08/17 04:18:53;;;;;;;;;;;;;;;21.29;52.47;99777.38;5105729;28;20045;-66
2021/08/17 04:21:21;;;;;;;;;;;;;;;21.29;52.62;99782.75;5102705;28;20032;-60
2021/08/17 04:23:49;;;;;;;;;;;;;;;21.31;52.72;99782.63;5097187;28;20000;-62
2021/08/17 04:26:17;;;;;;;;;;;;;;;21.31;52.94;99778.09;5103358;27;19928;-58
2021/08/17 04:28:45;;;;;;;;;;;;;;;21.29;52.85;99781.88;5102681;28;19929;-62
2021/08/17 04:31:13;;;;;;;;;;;;;;;21.29;52.73;99772.00;5105835;28;19932;-62
2021/08/17 04:33:41;;;;;;;;;;;;;;;21.28;52.54;99778.38;5103953;28;19938;-60
2021/08/17 04:36:10;;;;;;;;;;;;;;;21.29;52.46;99773.81;5106268;28;19932;-63
2021/08/17 04:38:38;;;;;;;;;;;;;;;21.28;52.46;99783.75;5100275;28;20001;-62
2021/08/17 04:41:06;;;;;;;;;;;;;;;21.28;52.87;99772.16;5101860;28;19932;-62
2021/08/17 04:43:34;;;;;;;;;;;;;;;21.28;52.99;99777.53;5104990;28;19924;-62
2021/08/17 04:46:02;;;;;;;;;;;;;;;21.28;52.69;99791.81;5102522;28;19927;-62
2021/08/17 04:48:31;;;;;;;;;;;;;;;21.28;52.86;99775.66;5101219;28;19932;-62
2021/08/17 04:50:59;;;;;;;;;;;;;;;21.28;52.87;99772.97;5101019;27;19932;-62
2021/08/17 04:53:28;;;;;;;;;;;;;;;21.29;52.87;99781.88;5107628;27;19923;-62
2021/08/17 04:55:56;;;;;;;;;;;;;;;21.28;52.75;99777.53;5103125;28;19932;-62
2021/08/17 04:58:24;;;;;;;;;;;;;;;21.31;53.15;99782.63;5103735;28;19958;-60
2021/08/17 05:00:52;;;;;;;;;;;;;;;21.29;52.65;99790.84;5108797;27;20034;-62
2021/08/17 05:03:23;;;;;;;;;;;;;;;21.29;52.77;99777.38;5107531;27;19936;-63
2021/08/17 05:05:51;;;;;;;;;;;;;;;21.29;52.75;99776.50;5100953;28;19931;-62
2021/08/17 05:08:19;;;;;;;;;;;;;;;21.29;52.49;99777.38;5103062;28;20432;-62
2021/08/17 05:10:48;;;;;;;;;;;;;;;21.30;52.52;99773.72;5106465;28;19932;-60
2021/08/17 05:13:17;;;;;;;;;;;;;;;21.28;52.74;99772.97;5106822;28;20430;-62
2021/08/17 05:15:45;;;;;;;;;;;;;;;21.29;52.53;99763.94;5098968;28;19985;-62
2021/08/17 05:18:13;;;;;;;;;;;;;;;21.29;52.45;99765.75;5107363;27;19928;-59
2021/08/17 05:20:41;;;;;;;;;;;;;;;21.29;52.76;99765.75;5096164;28;20072;-59
2021/08/17 05:23:09;;;;;;;;;;;;;;;21.31;52.88;99761.94;5101579;28;19987;-62
2021/08/17 05:25:37;;;;;;;;;;;;;;;21.31;52.93;99764.63;5114988;28;19931;-61
2021/08/17 05:28:06;;;;;;;;;;;;;;;21.32;53.03;99768.19;5108702;27;20046;-61
2021/08/17 05:30:34;;;;;;;;;;;;;;;21.34;52.75;99764.38;5099706;27;19932;-56
2021/08/17 05:33:02;;;;;;;;;;;;;;;21.35;52.49;99765.22;5100555;28;19932;-59
2021/08/17 05:35:30;;;;;;;;;;;;;;;21.36;51.86;99762.38;5095403;28;19950;-57
2021/08/17 05:37:58;;;;;;;;;;;;;;;21.39;53.05;99770.22;5100338;27;19940;-64
2021/08/17 05:40:26;;;;;;;;;;;;;;;21.40;52.61;99779.13;5102754;28;20385;-59
2021/08/17 05:42:54;;;;;;;;;;;;;;;21.44;52.08;99774.31;5098763;28;20065;-61
2021/08/17 05:45:24;;;;;;;;;;;;;;;21.45;51.37;99778.72;5098673;28;19927;-58
2021/08/17 05:47:52;;;;;;;;;;;;;;;21.47;53.30;99780.28;5102454;28;20011;-60
2021/08/17 05:50:20;;;;;;;;;;;;;;;21.49;53.97;99786.38;5102382;28;19945;-59
2021/08/17 05:52:49;;;;;;;;;;;;;;;21.49;54.10;99786.38;5109129;27;19927;-57
2021/08/17 05:55:20;;;;;;;;;;;;;;;21.51;54.83;99784.41;5101053;28;20094;-62
2021/08/17 05:57:56;;;;;;;;;;;;;;;21.54;54.92;99777.94;5100187;28;19931;-59
2021/08/17 06:00:25;;;;;;;;;;;;;;;21.55;55.11;99776.94;5105912;27;19938;-55
2021/08/17 06:02:54;;;;;;;;;;;;;;;21.54;55.51;99776.09;5100223;28;19946;-56
2021/08/17 06:05:22;;;;;;;;;;;;;;;21.55;55.81;99772.41;5098339;28;19995;-58
2021/08/17 06:07:50;;;;;;;;;;;;;;;21.56;57.13;99770.56;5102805;28;19935;-60
2021/08/17 06:10:19;;;;;;;;;;;;;;;21.54;56.26;99765.31;5103450;28;20421;-61
2021/08/17 06:12:48;;;;;;;;;;;;;;;21.52;56.51;99769.09;5101250;28;20005;-58
2021/08/17 06:15:16;;;;;;;;;;;;;;;21.52;55.89;99763.72;5104044;28;19928;-58
2021/08/17 06:17:47;;;;;;;;;;;;;;;21.53;55.36;99762.75;5098245;28;19928;-57
2021/08/17 06:20:16;;;;;;;;;;;;;;;21.55;55.62;99750.88;5095276;28;19944;-60
2021/08/17 06:22:44;;;;;;;;;;;;;;;21.55;54.97;99752.72;5105833;28;19928;-61
2021/08/17 06:25:13;;;;;;;;;;;;;;;21.55;55.37;99750.03;5109707;28;19932;-59
2021/08/17 06:27:40;;;;;;;;;;;;;;;21.55;55.55;99752.72;5103032;28;19942;-62
2021/08/17 06:30:09;;;;;;;;;;;;;;;21.57;55.56;99744.53;5100997;28;19966;-61
2021/08/17 06:32:55;;;;;;;;;;;;;;;21.57;55.10;99748.06;5093673;28;19935;-63
2021/08/17 06:35:23;;;;;;;;;;;;;;;21.59;55.30;99754.16;5103342;28;20410;-58
2021/08/17 06:37:52;;;;;;;;;;;;;;;21.58;54.48;99751.59;5104361;28;19940;-59
2021/08/17 06:40:20;;;;;;;;;;;;;;;21.57;54.66;99757.97;5102134;28;19928;-58
2021/08/17 06:42:49;;;;;;;;;;;;;;;21.54;54.81;99757.25;5110134;28;19974;-54
2021/08/17 06:45:17;;;;;;;;;;;;;;;21.55;54.63;99750.03;5099382;28;19939;-58
2021/08/17 06:47:45;;;;;;;;;;;;;;;21.54;54.21;99748.34;5105405;28;20049;-58
2021/08/17 06:50:35;;;;;;;;;;;;;;;21.54;54.38;99742.97;5105583;28;20327;-58
2021/08/17 06:53:03;;;;;;;;;;;;;;;21.53;54.79;99742.06;5108126;28;19951;-60
2021/08/17 06:55:31;;;;;;;;;;;;;;;21.53;54.64;99744.75;5108544;28;20376;-58
2021/08/17 06:57:58;;;;;;;;;;;;;;;21.54;55.16;99741.09;5098160;27;19932;-54
2021/08/17 07:00:27;;;;;;;;;;;;;;;21.55;54.95;99733.88;5099139;28;20190;-56
2021/08/17 07:02:55;;;;;;;;;;;;;;;21.54;55.06;99719.59;5103010;28;19928;-59
2021/08/17 07:05:35;;;;;;;;;;;;;;;21.54;55.23;99716.91;5105665;28;19954;-59
2021/08/17 07:08:04;;;;;;;;;;;;;;;21.54;54.67;99708.81;5106764;28;20018;-56
2021/08/17 07:10:32;;;;;;;;;;;;;;;21.53;55.13;99695.47;5107070;28;20015;-58
2021/08/17 07:13:19;;;;;;;;;;;;;;;21.52;54.84;99700.03;5101966;28;19931;-59
2021/08/17 07:15:47;;;;;;;;;;;;;;;21.52;54.17;99694.66;5100441;28;19994;-58
2021/08/17 07:18:16;;;;;;;;;;;;;;;21.53;54.31;99700.88;5104555;28;19939;-57
2021/08/17 07:20:46;;;;;;;;;;;;;;;21.54;53.99;99683.78;5102861;28;20011;-51
2021/08/17 07:23:14;;;;;;;;;;;;;;;21.55;54.04;99696.22;5106055;28;19966;-59
2021/08/17 07:25:42;;;;;;;;;;;;;;;21.55;54.15;99677.38;5104293;28;19928;-56
2021/08/17 07:28:11;;;;;;;;;;;;;;;21.56;54.04;99673.69;5097082;28;21015;-58
2021/08/17 07:30:40;;;;;;;;;;;;;;;21.55;53.91;99685.44;5097981;28;19927;-53
2021/08/17 07:33:08;;;;;;;;;;;;;;;21.55;54.53;99661.22;5102188;28;19934;-55
2021/08/17 07:35:36;;;;;;;;;;;;;;;21.57;54.28;99669.19;5104932;28;19946;-55
2021/08/17 07:38:06;;;;;;;;;;;;;;;21.58;54.10;99658.28;5104415;28;19927;-58
2021/08/17 07:40:33;;;;;;;;;;;;;;;21.58;53.73;99644.81;5102373;28;20740;-59
2021/08/17 07:43:05;;;;;;;;;;;;;;;21.58;54.12;99643.97;5097548;28;19997;-55
2021/08/17 07:45:34;;;;;;;;;;;;;;;21.59;53.97;99672.56;5103243;28;20189;-56
2021/08/17 07:48:24;;;;;;;;;;;;;;;21.58;54.56;99670.88;5106124;28;20004;-59
2021/08/17 07:50:52;;;;;;;;;;;;;;;21.60;54.09;99660.81;5101637;28;19932;-58
2021/08/17 07:53:22;;;;;;;;;;;;;;;21.60;54.15;99666.22;5102455;28;19950;-59
2021/08/17 07:55:50;;;;;;;;;;;;;;;21.58;54.70;99663.66;5098426;28;20042;-58
2021/08/17 07:58:18;;;;;;;;;;;;;;;21.59;53.98;99670.75;5100200;28;19934;-58
2021/08/17 08:00:46;;;;;;;;;;;;;;;21.60;53.33;99658.97;5100829;28;20370;-56
2021/08/17 08:03:14;;;;;;;;;;;;;;;21.62;53.23;99657.00;5102055;28;19948;-59
2021/08/17 08:05:43;;;;;;;;;;;;;;;21.65;52.97;99658.56;5102717;28;19953;-57
2021/08/17 08:08:11;;;;;;;;;;;;;;;21.65;53.20;99655.88;5103018;28;20212;-57
2021/08/17 08:10:40;;;;;;;;;;;;;;;21.69;53.16;99665.38;5096413;28;19928;-59
2021/08/17 08:13:08;;;;;;;;;;;;;;;21.68;53.64;99663.66;5106762;28;20281;-57
2021/08/17 08:15:37;;;;;;;;;;;;;;;21.69;53.03;99665.38;5103415;28;20040;-59
2021/08/17 08:18:05;;;;;;;;;;;;;;;21.70;53.02;99669.75;5101117;28;19927;-58
2021/08/17 08:20:33;;;;;;;;;;;;;;;21.73;53.10;99672.16;5105094;28;20460;-52
2021/08/17 08:23:05;;;;;;;;;;;;;;;21.77;52.70;99678.13;5098907;28;20529;-59
2021/08/17 08:25:34;;;;;;;;;;;;;;;21.75;53.00;99675.56;5099738;28;19942;-57
2021/08/17 08:28:05;;;;;;;;;;;;;;;21.74;52.56;99675.72;5105193;28;19932;-58
2021/08/17 08:30:33;;;;;;;;;;;;;;;21.72;52.15;99687.47;5100889;28;19927;-55
2021/08/17 08:33:01;;;;;;;;;;;;;;;21.73;52.89;99691.00;5100132;28;19948;-59
2021/08/17 08:35:30;;;;;;;;;;;;;;;21.70;53.19;99699.38;5101405;28;19928;-58
2021/08/17 08:37:58;;;;;;;;;;;;;;;21.69;53.78;99700.34;5102676;28;19936;-54
2021/08/17 08:40:27;;;;;;;;;;;;;;;21.67;53.31;99705.03;5097448;28;19923;-57
2021/08/17 08:42:55;;;;;;;;;;;;;;;21.66;54.46;99709.56;5103884;28;20767;-59
2021/08/17 08:45:26;;;;;;;;;;;;;;;21.67;53.55;99699.66;5106006;28;20267;-59
2021/08/17 08:47:55;;;;;;;;;;;;;;;21.68;53.63;99712.97;5133555;27;19991;-56
2021/08/17 08:50:23;;;;;;;;;;;;;;;21.67;53.69;99719.34;5102790;28;19928;-57
2021/08/17 08:52:51;;;;;;;;;;;;;;;21.69;53.58;99728.09;5097996;28;19932;-58
2021/08/17 08:55:20;;;;;;;;;;;;;;;21.70;54.28;99728.97;5099225;28;20231;-59
2021/08/17 08:57:50;;;;;;;;;;;;;;;21.68;53.22;99734.50;5101824;28;19924;-50
2021/08/17 09:00:18;;;;;;;;;;;;;;;21.69;53.63;99733.47;5105826;28;20416;-58
2021/08/17 09:02:50;;;;;;;;;;;;;;;21.68;53.85;99730.94;5102494;28;20315;-55
2021/08/17 09:05:21;;;;;;;;;;;;;;;21.68;53.93;99730.94;5115338;27;20469;-59
2021/08/17 09:07:50;;;;;;;;;;;;;;;21.69;53.88;99727.25;5098436;27;20001;-58
2021/08/17 09:10:19;;;;;;;;;;;;;;;21.69;53.88;99727.25;5102455;28;20496;-51
2021/08/17 09:12:48;;;;;;;;;;;;;;;21.68;54.38;99722.88;5102529;28;20018;-57
2021/08/17 09:15:18;;;;;;;;;;;;;;;21.65;54.21;99724.00;5103541;28;19931;-57
2021/08/17 09:17:57;;;;;;;;;;;;;;;21.64;53.75;99730.38;5102081;28;19938;-58
2021/08/17 09:20:29;;;;;;;;;;;;;;;21.65;53.89;99725.84;5095468;28;19931;-58
2021/08/17 09:22:57;;;;;;;;;;;;;;;21.66;53.82;99727.56;5097646;28;20331;-54
2021/08/17 09:25:32;;;;;;;;;;;;;;;21.67;53.63;99726.56;5099070;28;19927;-58
2021/08/17 09:28:22;;;;;;;;;;;;;;;21.67;54.03;99731.94;5098715;28;20146;-58
2021/08/17 09:30:50;;;;;;;;;;;;;;;21.66;53.99;99736.47;5100636;28;19932;-56
2021/08/17 09:33:19;;;;;;;;;;;;;;;21.68;53.34;99739.00;5099526;28;19927;-58
2021/08/17 09:35:48;;;;;;;;;;;;;;;21.72;53.68;99745.81;5100467;28;21081;-60
2021/08/17 09:38:17;;;;;;;;;;;;;;;21.74;53.56;99734.94;5103170;28;19932;-58
2021/08/17 09:40:45;;;;;;;;;;;;;;;21.72;53.56;99735.91;5104434;28;19963;-58
2021/08/17 09:43:14;;;;;;;;;;;;;;;21.72;53.81;99738.63;5102539;28;19923;-58
2021/08/17 09:45:42;;;;;;;;;;;;;;;21.72;53.64;99732.34;5100133;28;19924;-57
2021/08/17 09:48:12;;;;;;;;;;;;;;;21.72;53.53;99733.22;5097471;28;19975;-58
2021/08/17 09:50:42;;;;;;;;;;;;;;;21.72;53.90;99738.63;5098907;28;19969;-58
2021/08/17 09:53:12;;;;;;;;;;;;;;;21.72;53.35;99740.44;5101086;28;20362;-58
2021/08/17 09:55:44;;;;;;;;;;;;;;;21.71;53.66;99736.91;5102262;28;20027;-59
2021/08/17 09:58:19;;;;;;;;;;;;;;;21.71;53.17;99728.00;5109328;28;19968;-57
2021/08/17 10:00:48;;;;;;;;;;;;;;;21.73;53.19;99717.91;5101962;28;19931;-58
2021/08/17 10:03:17;;;;;;;;;;;;;;;21.74;53.73;99716.09;5100613;28;19928;-57
2021/08/17 10:05:47;;;;;;;;;;;;;;;21.72;53.46;99717.09;5103208;28;19928;-58
2021/08/17 10:08:16;;;;;;;;;;;;;;;21.72;53.70;99721.59;5104146;28;20375;-58
2021/08/17 10:10:46;;;;;;;;;;;;;;;21.72;53.60;99726.97;5105572;28;19924;-58
2021/08/17 10:13:14;;;;;;;;;;;;;;;21.72;53.23;99735.91;5102415;28;19932;-58
2021/08/17 10:15:43;;;;;;;;;;;;;;;21.72;53.66;99735.06;5099237;28;19935;-58
2021/08/17 10:18:13;;;;;;;;;;;;;;;21.72;53.51;99741.31;5098269;28;19924;-57
2021/08/17 10:20:43;;;;;;;;;;;;;;;21.72;53.07;99732.34;5106413;28;20316;-58
2021/08/17 10:23:16;;;;;;;;;;;;;;;21.71;53.14;99730.69;5104865;28;19923;-59
2021/08/17 10:25:46;;;;;;;;;;;;;;;21.70;52.89;99731.66;5102587;28;19954;-57
2021/08/17 10:28:23;;;;;;;;;;;;;;;21.75;54.41;99744.69;5102120;28;20322;-57
2021/08/17 10:30:52;;;;;;;;;;;;;;;21.77;54.85;99743.56;5095426;28;20042;-63
2021/08/17 10:33:34;;;;;;;;;;;;;;;21.78;54.86;99731.81;5103845;28;19931;-63
2021/08/17 10:36:02;;;;;;;;;;;;;;;21.78;55.60;99742.56;5103145;28;20054;-64
2021/08/17 10:38:52;;;;;;;;;;;;;;;21.79;55.75;99744.28;5102765;28;19931;-64
2021/08/17 10:41:28;;;;;;;;;;;;;;;21.81;55.60;99725.31;5101980;28;19924;-63
2021/08/17 10:44:15;;;;;;;;;;;;;;;21.79;56.24;99719.22;5098419;28;19928;-64
2021/08/17 10:46:45;;;;;;;;;;;;;;;21.79;56.57;99708.47;5102857;28;19936;-66
2021/08/17 10:49:33;;;;;;;;;;;;;;;21.80;56.40;99705.63;5101182;28;20358;-64
2021/08/17 10:52:03;;;;;;;;;;;;;;;21.80;55.78;99702.94;5102400;28;20008;-60
2021/08/17 10:54:32;;;;;;;;;;;;;;;21.82;55.18;99695.53;5108442;28;19924;-72
2021/08/17 10:57:14;;;;;;;;;;;;;;;21.84;55.94;99696.28;5108921;28;19927;-70
2021/08/17 10:59:46;;;;;;;;;;;;;;;21.85;55.45;99689.91;5106355;28;20400;-70
2021/08/17 11:02:14;;;;;;;;;;;;;;;22.00;54.41;99692.19;5107671;28;19953;-68
2021/08/17 11:04:43;;;;;;;;;;;;;;;22.10;53.69;99698.38;5109157;28;19938;-70
2021/08/17 11:07:25;;;;;;;;;;;;;;;22.00;54.02;99698.41;5100991;28;19935;-69
2021/08/17 11:09:54;;;;;;;;;;;;;;;22.01;54.11;99691.16;5100143;28;19999;-69
2021/08/17 11:12:30;;;;;;;;;;;;;;;22.02;54.13;99696.44;5103991;28;19995;-69
2021/08/17 11:14:59;;;;;;;;;;;;;;;21.99;53.66;99706.63;5102460;28;19924;-70
2021/08/17 11:17:28;;;;;;;;;;;;;;;21.92;54.81;99702.78;5108618;28;19993;-70
2021/08/17 11:19:56;;;;;;;;;;;;;;;21.88;54.76;99708.44;5106087;28;19935;-70
2021/08/17 11:22:25;;;;;;;;;;;;;;;21.86;54.91;99712.28;5114958;28;20023;-69
2021/08/17 11:24:55;;;;;;;;;;;;;;;21.85;54.69;99721.34;5104481;28;19924;-70
2021/08/17 11:27:24;;;;;;;;;;;;;;;21.84;54.82;99723.19;5105467;28;19955;-69
2021/08/17 11:29:52;;;;;;;;;;;;;;;21.84;54.31;99717.81;5109194;28;19931;-69
2021/08/17 11:32:30;;;;;;;;;;;;;;;21.88;54.31;99730.00;5101350;28;19971;-67
2021/08/17 11:34:58;;;;;;;;;;;;;;;21.90;53.97;99719.06;5104614;28;19967;-68
2021/08/17 11:37:26;;;;;;;;;;;;;;;21.90;53.91;99719.06;5101382;28;19931;-67
2021/08/17 11:39:55;;;;;;;;;;;;;;;21.89;54.16;99726.31;5102746;28;19932;-68
2021/08/17 11:42:24;;;;;;;;;;;;;;;21.91;53.53;99719.94;5099548;28;19943;-66
2021/08/17 11:44:55;;;;;;;;;;;;;;;22.02;53.63;99735.94;5103035;28;19987;-65
2021/08/17 11:47:24;;;;;;;;;;;;;;;21.97;54.10;99735.50;5104634;28;20370;-67
2021/08/17 11:49:54;;;;;;;;;;;;;;;21.92;54.29;99737.78;5107258;28;20740;-68
2021/08/17 11:52:24;;;;;;;;;;;;;;;21.91;53.81;99738.78;5102703;27;19943;-66
2021/08/17 11:54:56;;;;;;;;;;;;;;;21.91;54.42;99744.16;5101195;28;19950;-70
2021/08/17 11:57:29;;;;;;;;;;;;;;;21.92;54.48;99745.84;5101120;28;19928;-67
2021/08/17 12:00:03;;;;;;;;;;;;;;;21.92;54.55;99752.09;5107020;28;20043;-66
2021/08/17 12:02:36;;;;;;;;;;;;;;;21.91;53.62;99758.47;5100089;28;19956;-67
2021/08/17 12:05:06;;;;;;;;;;;;;;;21.89;53.82;99766.69;5104556;28;20064;-65
2021/08/17 12:07:35;;;;;;;;;;;;;;;21.89;53.93;99772.06;5102928;28;19923;-67
2021/08/17 12:10:05;;;;;;;;;;;;;;;21.86;54.18;99768.81;5096589;28;19982;-66
2021/08/17 12:12:53;;;;;;;;;;;;;;;21.86;54.45;99768.81;5102724;28;20469;-68
2021/08/17 12:15:26;;;;;;;;;;;;;;;21.86;54.26;99774.19;5106529;28;19932;-67
2021/08/17 12:17:56;;;;;;;;;;;;;;;21.85;54.11;99781.44;5103579;28;20063;-67
2021/08/17 12:20:26;;;;;;;;;;;;;;;21.85;53.90;99788.63;5104282;28;19928;-66
2021/08/17 12:22:54;;;;;;;;;;;;;;;21.88;54.31;99783.84;5100657;28;19924;-68
2021/08/17 12:25:23;;;;;;;;;;;;;;;21.92;53.76;99789.78;5101742;28;19957;-67
2021/08/17 12:27:56;;;;;;;;;;;;;;;21.92;53.63;99799.69;5103560;28;19924;-67
2021/08/17 12:30:28;;;;;;;;;;;;;;;21.90;55.00;99807.91;5104710;28;19932;-67
2021/08/17 12:32:57;;;;;;;;;;;;;;;21.88;54.24;99801.84;5103853;28;19946;-67
2021/08/17 12:35:31;;;;;;;;;;;;;;;21.86;54.63;99815.41;5100166;28;19946;-67
2021/08/17 12:38:13;;;;;;;;;;;;;;;21.86;54.58;99806.50;5101528;28;19976;-59
2021/08/17 12:40:45;;;;;;;;;;;;;;;21.83;54.24;99783.38;5104561;27;19970;-59
2021/08/17 12:43:19;;;;;;;;;;;;;;;21.84;53.60;99803.94;5101665;28;19943;-64
2021/08/17 12:45:46;;;;;;;;;;;;;;;21.84;54.38;99790.47;5104510;28;20520;-67
2021/08/17 12:48:15;;;;;;;;;;;;;;;21.84;54.08;99800.38;5102288;28;20477;-68
2021/08/17 12:50:46;;;;;;;;;;;;;;;21.83;54.41;99794.16;5104697;28;19998;-67
2021/08/17 12:53:19;;;;;;;;;;;;;;;21.85;54.04;99796.72;5099764;28;20041;-68
2021/08/17 12:55:46;;;;;;;;;;;;;;;21.84;54.09;99793.19;5103473;28;19924;-67
2021/08/17 12:58:14;;;;;;;;;;;;;;;21.84;54.34;99803.94;5104226;28;19928;-67
2021/08/17 13:00:43;;;;;;;;;;;;;;;21.85;53.63;99794.88;5103029;28;19923;-66
2021/08/17 13:03:13;;;;;;;;;;;;;;;21.85;54.87;99819.13;5101258;28;19931;-67
2021/08/17 13:05:41;;;;;;;;;;;;;;;21.86;54.33;99820.78;5103782;28;20383;-65